createdAt,value
2023-02-02T00:00:58.018Z,8.34
2023-02-02T00:02:03.248Z,8.33
2023-02-02T00:03:06.013Z,8.28
2023-02-02T00:04:10.923Z,8.19
2023-02-02T00:05:13.347Z,8.05
2023-02-02T00:06:17.410Z,8.10
2023-02-02T00:07:20.087Z,8.12
2023-02-02T00:08:24.068Z,8.04
2023-02-02T00:09:29.207Z,7.95
2023-02-02T00:10:33.158Z,8.02
2023-02-02T00:11:37.056Z,8.09
2023-02-02T00:12:40.976Z,8.16
2023-02-02T00:13:43.493Z,8.16
2023-02-02T00:14:47.617Z,8.37
2023-02-02T00:15:50.590Z,8.31
2023-02-02T00:16:54.900Z,8.39
2023-02-02T00:17:58.096Z,8.11
2023-02-02T00:19:03.759Z,8.02
2023-02-02T00:20:07.514Z,7.82
2023-02-02T00:21:11.306Z,7.83
2023-02-02T00:22:13.834Z,7.86
2023-02-02T00:23:17.421Z,8.02
2023-02-02T00:24:20.508Z,7.85
2023-02-02T00:25:25.018Z,7.71
2023-02-02T00:26:28.696Z,7.69
2023-02-02T00:27:33.700Z,7.88
2023-02-02T00:28:36.636Z,7.89
2023-02-02T00:29:40.635Z,7.86
2023-02-02T00:30:43.048Z,7.94
2023-02-02T00:31:46.871Z,7.82
2023-02-02T00:32:50.907Z,7.86
2023-02-02T00:33:54.783Z,7.92
2023-02-02T00:34:57.716Z,7.96
2023-02-02T00:36:01.962Z,7.99
2023-02-02T00:37:06.048Z,8.04
2023-02-02T00:38:08.465Z,8.12
2023-02-02T00:39:15.469Z,8.33
2023-02-02T00:40:18.724Z,8.21
2023-02-02T00:41:22.576Z,8.24
2023-02-02T00:42:25.842Z,8.44
2023-02-02T00:43:31.018Z,8.21
2023-02-02T00:44:51.780Z,8.23
2023-02-02T00:45:54.609Z,8.21
2023-02-02T00:46:57.035Z,8.27
2023-02-02T00:48:00.504Z,8.25
2023-02-02T00:49:03.073Z,8.34
2023-02-02T00:50:07.550Z,8.28
2023-02-02T00:51:10.336Z,8.12
2023-02-02T00:52:13.881Z,8.35
2023-02-02T00:53:17.257Z,8.39
2023-02-02T00:54:21.156Z,8.40
2023-02-02T00:55:24.251Z,8.45
2023-02-02T00:56:27.879Z,8.43
2023-02-02T00:57:30.643Z,8.33
2023-02-02T00:58:35.762Z,8.40
2023-02-02T00:59:38.127Z,8.42
2023-02-02T01:00:41.668Z,8.22
2023-02-02T01:01:44.542Z,8.18
2023-02-02T01:02:48.858Z,8.14
2023-02-02T01:03:51.758Z,8.18
2023-02-02T01:04:55.395Z,8.14
2023-02-02T01:05:57.794Z,8.35
2023-02-02T01:07:01.219Z,8.19
2023-02-02T01:08:04.737Z,8.23
2023-02-02T01:09:07.527Z,8.17
2023-02-02T01:10:15.672Z,8.21
2023-02-02T01:11:18.566Z,8.35
2023-02-02T01:12:22.437Z,8.33
2023-02-02T01:13:25.086Z,8.03
2023-02-02T01:14:30.197Z,7.77
2023-02-02T01:15:32.874Z,7.89
2023-02-02T01:16:36.870Z,7.82
2023-02-02T01:17:39.697Z,7.85
2023-02-02T01:18:43.341Z,7.82
2023-02-02T01:19:45.649Z,7.79
2023-02-02T01:20:49.210Z,7.70
2023-02-02T01:21:51.628Z,7.97
2023-02-02T01:22:54.994Z,7.79
2023-02-02T01:23:58.021Z,7.86
2023-02-02T01:25:01.459Z,7.87
2023-02-02T01:26:06.862Z,8.03
2023-02-02T01:27:10.350Z,8.26
2023-02-02T01:28:13.055Z,8.11
2023-02-02T01:29:16.515Z,8.05
2023-02-02T01:30:20.806Z,8.06
2023-02-02T01:31:24.496Z,8.19
2023-02-02T01:32:27.386Z,8.25
2023-02-02T01:33:30.964Z,8.35
2023-02-02T01:34:33.537Z,8.42
2023-02-02T01:35:37.157Z,8.50
2023-02-02T01:36:40.101Z,8.55
2023-02-02T01:37:43.813Z,8.63
2023-02-02T01:38:47.398Z,8.69
2023-02-02T01:39:50.899Z,8.65
2023-02-02T01:40:55.400Z,8.68
2023-02-02T01:41:59.252Z,8.59
2023-02-02T01:43:01.759Z,8.47
2023-02-02T01:44:07.177Z,8.57
2023-02-02T01:45:24.717Z,8.58
2023-02-02T01:46:30.443Z,8.49
2023-02-02T01:47:37.760Z,8.52
2023-02-02T01:48:43.697Z,8.39
2023-02-02T01:49:46.636Z,8.49
2023-02-02T01:50:54.367Z,8.69
2023-02-02T01:52:00.249Z,8.77
2023-02-02T01:53:06.528Z,8.69
2023-02-02T01:54:11.337Z,8.75
2023-02-02T01:55:17.726Z,8.81
2023-02-02T01:56:25.309Z,8.97
2023-02-02T01:57:33.690Z,8.94
2023-02-02T01:58:40.863Z,8.94
2023-02-02T01:59:46.063Z,8.93
2023-02-02T02:00:51.067Z,8.87
2023-02-02T02:01:55.518Z,8.82
2023-02-02T02:03:02.707Z,8.91
2023-02-02T02:04:06.850Z,8.80
2023-02-02T02:05:11.015Z,8.40
2023-02-02T02:06:17.155Z,8.46
2023-02-02T02:07:19.821Z,8.44
2023-02-02T02:08:27.774Z,8.47
2023-02-02T02:09:30.236Z,8.41
2023-02-02T02:10:33.772Z,8.04
2023-02-02T02:11:36.843Z,8.18
2023-02-02T02:12:40.943Z,8.28
2023-02-02T02:14:02.419Z,8.41
2023-02-02T02:15:23.250Z,8.41
2023-02-02T02:16:40.166Z,8.61
2023-02-02T02:18:00.185Z,8.56
2023-02-02T02:19:16.164Z,8.76
2023-02-02T02:21:02.144Z,8.80
2023-02-02T02:22:31.347Z,8.81
2023-02-02T02:24:28.840Z,8.90
2023-02-02T02:26:12.175Z,8.85
2023-02-02T02:27:55.132Z,8.81
2023-02-02T02:29:42.898Z,8.43
2023-02-02T02:31:07.913Z,8.21
2023-02-02T02:32:28.632Z,7.91
2023-02-02T02:33:39.967Z,7.73
2023-02-02T02:34:52.984Z,7.56
2023-02-02T02:36:03.661Z,7.68
2023-02-02T02:37:12.306Z,7.61
2023-02-02T02:38:21.102Z,7.68
2023-02-02T02:39:33.015Z,8.05
2023-02-02T02:40:38.489Z,8.04
2023-02-02T02:41:47.860Z,8.09
2023-02-02T02:42:55.088Z,8.24
2023-02-02T02:44:03.214Z,8.26
2023-02-02T02:45:08.216Z,8.48
2023-02-02T02:46:13.758Z,8.58
2023-02-02T02:47:17.678Z,8.57
2023-02-02T02:48:22.661Z,8.57
2023-02-02T02:49:25.185Z,8.60
2023-02-02T02:50:29.698Z,8.45
2023-02-02T02:51:43.423Z,8.32
2023-02-02T02:52:50.896Z,8.52
2023-02-02T02:53:53.743Z,8.60
2023-02-02T02:54:59.407Z,8.56
2023-02-02T02:56:11.629Z,8.45
2023-02-02T02:57:35.689Z,8.50
2023-02-02T02:58:51.298Z,8.11
2023-02-02T03:00:01.473Z,8.26
2023-02-02T03:01:12.740Z,8.36
2023-02-02T03:02:29.295Z,8.14
2023-02-02T03:03:55.238Z,8.05
2023-02-02T03:05:08.342Z,7.78
2023-02-02T03:06:18.425Z,7.80
2023-02-02T03:07:27.459Z,7.70
2023-02-02T03:08:36.263Z,7.72
2023-02-02T03:09:42.736Z,7.82
2023-02-02T03:10:48.504Z,7.74
2023-02-02T03:11:51.095Z,7.73
2023-02-02T03:12:56.098Z,7.55
2023-02-02T03:13:58.760Z,7.27
2023-02-02T03:15:06.745Z,7.23
2023-02-02T03:16:10.680Z,7.25
2023-02-02T03:17:14.283Z,7.37
2023-02-02T03:18:19.538Z,7.40
2023-02-02T03:19:25.010Z,7.35
2023-02-02T03:20:28.146Z,7.22
2023-02-02T03:21:32.051Z,7.31
2023-02-02T03:22:34.605Z,7.38
2023-02-02T03:23:38.818Z,7.46
2023-02-02T03:24:41.600Z,7.50
2023-02-02T03:25:45.622Z,7.56
2023-02-02T03:26:48.462Z,7.45
2023-02-02T03:27:52.370Z,7.39
2023-02-02T03:28:57.156Z,7.62
2023-02-02T03:30:01.271Z,7.73
2023-02-02T03:31:04.608Z,7.83
2023-02-02T03:32:08.416Z,7.88
2023-02-02T03:33:12.215Z,7.94
2023-02-02T03:34:15.801Z,7.92
2023-02-02T03:35:20.958Z,7.73
2023-02-02T03:36:24.948Z,7.69
2023-02-02T03:37:27.938Z,7.26
2023-02-02T03:38:31.423Z,7.22
2023-02-02T03:39:33.873Z,7.06
2023-02-02T03:40:37.532Z,7.00
2023-02-02T03:41:40.117Z,7.05
2023-02-02T03:42:43.696Z,6.97
2023-02-02T03:43:46.117Z,7.16
2023-02-02T03:44:49.701Z,7.05
2023-02-02T03:45:57.561Z,7.23
2023-02-02T03:47:01.061Z,7.34
2023-02-02T03:48:05.526Z,7.63
2023-02-02T03:49:09.243Z,7.56
2023-02-02T03:50:12.161Z,7.59
2023-02-02T03:51:17.513Z,7.81
2023-02-02T03:52:20.225Z,7.81
2023-02-02T03:53:24.323Z,7.92
2023-02-02T03:54:27.010Z,7.96
2023-02-02T03:55:30.830Z,8.03
2023-02-02T03:56:33.558Z,8.13
2023-02-02T03:57:37.699Z,8.07
2023-02-02T03:58:40.450Z,8.15
2023-02-02T03:59:44.286Z,8.09
2023-02-02T04:00:46.858Z,8.12
2023-02-02T04:01:50.684Z,8.10
2023-02-02T04:02:55.838Z,8.07
2023-02-02T04:03:59.610Z,8.08
2023-02-02T04:05:03.267Z,7.90
2023-02-02T04:06:06.231Z,7.68
2023-02-02T04:07:12.559Z,7.46
2023-02-02T04:08:14.873Z,7.55
2023-02-02T04:09:18.381Z,7.68
2023-02-02T04:10:21.583Z,7.62
2023-02-02T04:11:25.264Z,7.54
2023-02-02T04:12:28.007Z,7.48
2023-02-02T04:13:31.826Z,7.60
2023-02-02T04:14:34.519Z,7.53
2023-02-02T04:15:37.999Z,7.71
2023-02-02T04:16:40.682Z,7.53
2023-02-02T04:17:44.734Z,7.43
2023-02-02T04:18:47.618Z,7.17
2023-02-02T04:19:53.243Z,7.48
2023-02-02T04:21:00.749Z,7.63
2023-02-02T04:22:03.576Z,7.77
2023-02-02T04:23:09.035Z,7.92
2023-02-02T04:24:13.447Z,8.07
2023-02-02T04:25:17.516Z,8.12
2023-02-02T04:26:20.072Z,8.17
2023-02-02T04:27:23.999Z,8.27
2023-02-02T04:28:27.390Z,8.35
2023-02-02T04:29:31.438Z,7.84
2023-02-02T04:30:34.039Z,7.65
2023-02-02T04:31:38.331Z,7.50
2023-02-02T04:32:40.925Z,7.76
2023-02-02T04:33:44.883Z,7.86
2023-02-02T04:34:47.857Z,7.89
2023-02-02T04:35:51.383Z,8.04
2023-02-02T04:36:54.939Z,8.05
2023-02-02T04:37:57.369Z,8.15
2023-02-02T04:39:02.530Z,8.15
2023-02-02T04:40:06.212Z,8.09
2023-02-02T04:41:15.238Z,8.07
2023-02-02T04:42:18.074Z,8.04
2023-02-02T04:43:21.731Z,8.08
2023-02-02T04:44:24.447Z,7.69
2023-02-02T04:45:28.156Z,7.72
2023-02-02T04:46:30.724Z,7.76
2023-02-02T04:47:34.495Z,7.47
2023-02-02T04:48:37.669Z,7.76
2023-02-02T04:49:41.494Z,7.62
2023-02-02T04:50:44.035Z,7.41
2023-02-02T04:51:47.744Z,6.98
2023-02-02T04:52:50.216Z,7.12
2023-02-02T04:53:53.591Z,7.34
2023-02-02T04:54:57.728Z,7.29
2023-02-02T04:56:07.212Z,7.23
2023-02-02T04:57:09.734Z,7.18
2023-02-02T04:58:13.493Z,7.14
2023-02-02T04:59:15.829Z,7.19
2023-02-02T05:00:20.100Z,7.25
2023-02-02T05:01:22.849Z,7.31
2023-02-02T05:02:26.471Z,7.25
2023-02-02T05:03:28.910Z,7.20
2023-02-02T05:04:32.811Z,7.21
2023-02-02T05:05:35.332Z,7.20
2023-02-02T05:06:38.847Z,7.09
2023-02-02T05:07:41.442Z,7.05
2023-02-02T05:08:45.411Z,7.12
2023-02-02T05:09:47.999Z,7.23
2023-02-02T05:10:53.122Z,7.47
2023-02-02T05:11:55.484Z,7.56
2023-02-02T05:12:59.140Z,7.60
2023-02-02T05:14:01.588Z,7.42
2023-02-02T05:15:06.581Z,7.36
2023-02-02T05:16:09.219Z,7.33
2023-02-02T05:17:12.933Z,7.45
2023-02-02T05:18:15.435Z,7.28
2023-02-02T05:19:19.187Z,7.33
2023-02-02T05:20:21.853Z,7.32
2023-02-02T05:21:25.665Z,7.35
2023-02-02T05:22:28.223Z,7.41
2023-02-02T05:23:32.380Z,7.18
2023-02-02T05:24:36.092Z,7.01
2023-02-02T05:25:39.045Z,7.20
2023-02-02T05:26:44.373Z,7.34
2023-02-02T05:27:47.517Z,7.26
2023-02-02T05:28:51.945Z,6.99
2023-02-02T05:29:54.753Z,7.02
2023-02-02T05:30:58.955Z,7.00
2023-02-02T05:32:02.752Z,7.05
2023-02-02T05:33:05.307Z,6.85
2023-02-02T05:34:11.610Z,6.71
2023-02-02T05:35:14.043Z,6.80
2023-02-02T05:36:17.535Z,6.75
2023-02-02T05:37:20.256Z,6.99
2023-02-02T05:38:23.811Z,7.00
2023-02-02T05:39:26.423Z,7.07
2023-02-02T05:40:30.075Z,7.06
2023-02-02T05:41:32.790Z,6.88
2023-02-02T05:42:38.267Z,6.80
2023-02-02T05:43:40.998Z,6.90
2023-02-02T05:44:44.696Z,6.87
2023-02-02T05:45:47.351Z,6.86
2023-02-02T05:46:50.865Z,6.65
2023-02-02T05:47:55.137Z,6.62
2023-02-02T05:48:59.654Z,6.73
2023-02-02T05:50:03.559Z,6.85
2023-02-02T05:51:11.672Z,7.04
2023-02-02T05:52:17.836Z,6.96
2023-02-02T05:53:21.271Z,7.00
2023-02-02T05:54:24.440Z,6.83
2023-02-02T05:55:27.784Z,6.80
2023-02-02T05:56:30.538Z,6.77
2023-02-02T05:57:34.095Z,6.80
2023-02-02T05:58:38.179Z,6.72
2023-02-02T05:59:43.077Z,6.88
2023-02-02T06:00:45.695Z,6.81
2023-02-02T06:01:49.962Z,6.66
2023-02-02T06:02:52.624Z,6.78
2023-02-02T06:03:56.044Z,6.76
2023-02-02T06:04:58.463Z,6.86
2023-02-02T06:06:02.342Z,6.82
2023-02-02T06:07:05.958Z,6.92
2023-02-02T06:08:09.654Z,6.86
2023-02-02T06:09:12.346Z,6.91
2023-02-02T06:10:16.173Z,7.00
2023-02-02T06:11:19.423Z,6.96
2023-02-02T06:12:22.879Z,7.02
2023-02-02T06:13:26.739Z,6.98
2023-02-02T06:14:30.945Z,7.12
2023-02-02T06:15:34.832Z,7.04
2023-02-02T06:16:37.418Z,7.16
2023-02-02T06:17:41.280Z,7.09
2023-02-02T06:18:43.717Z,7.02
2023-02-02T06:19:47.496Z,7.05
2023-02-02T06:20:56.066Z,6.98
2023-02-02T06:21:59.822Z,6.95
2023-02-02T06:23:02.698Z,6.94
2023-02-02T06:24:06.789Z,6.85
2023-02-02T06:25:10.340Z,6.72
2023-02-02T06:26:14.030Z,6.85
2023-02-02T06:27:16.795Z,6.87
2023-02-02T06:28:20.243Z,6.88
2023-02-02T06:29:22.976Z,6.78
2023-02-02T06:30:29.067Z,6.74
2023-02-02T06:31:31.609Z,6.88
2023-02-02T06:32:35.316Z,6.94
2023-02-02T06:33:38.267Z,6.85
2023-02-02T06:34:41.870Z,6.85
2023-02-02T06:35:44.375Z,7.02
2023-02-02T06:36:48.408Z,6.93
2023-02-02T06:37:51.788Z,7.09
2023-02-02T06:38:57.076Z,7.02
2023-02-02T06:40:01.083Z,6.93
2023-02-02T06:41:04.046Z,6.90
2023-02-02T06:42:20.356Z,6.85
2023-02-02T06:43:24.339Z,6.95
2023-02-02T06:44:27.736Z,6.82
2023-02-02T06:45:33.009Z,6.85
2023-02-02T06:46:35.475Z,6.87
2023-02-02T06:47:38.861Z,6.87
2023-02-02T06:48:42.622Z,6.95
2023-02-02T06:49:45.341Z,6.99
2023-02-02T06:50:49.071Z,6.81
2023-02-02T06:51:51.557Z,6.85
2023-02-02T06:52:55.315Z,6.83
2023-02-02T06:53:59.576Z,6.82
2023-02-02T06:55:03.438Z,6.78
2023-02-02T06:56:08.916Z,6.90
2023-02-02T06:57:12.685Z,6.88
2023-02-02T06:58:15.332Z,6.90
2023-02-02T06:59:20.795Z,6.91
2023-02-02T07:00:23.566Z,6.89
2023-02-02T07:01:28.492Z,6.99
2023-02-02T07:02:30.714Z,7.02
2023-02-02T07:03:35.614Z,6.89
2023-02-02T07:04:38.200Z,6.90
2023-02-02T07:05:41.862Z,6.95
2023-02-02T07:06:44.676Z,6.98
2023-02-02T07:07:48.212Z,6.99
2023-02-02T07:09:02.007Z,6.95
2023-02-02T07:10:07.769Z,6.96
2023-02-02T07:11:16.114Z,7.01
2023-02-02T07:12:20.049Z,7.15
2023-02-02T07:13:22.882Z,7.27
2023-02-02T07:14:27.241Z,7.28
2023-02-02T07:15:30.785Z,7.51
2023-02-02T07:16:34.563Z,7.66
2023-02-02T07:17:38.131Z,7.83
2023-02-02T07:18:43.000Z,7.97
2023-02-02T07:19:46.325Z,7.91
2023-02-02T07:20:49.088Z,7.95
2023-02-02T07:21:52.639Z,7.61
2023-02-02T07:22:55.504Z,7.73
2023-02-02T07:23:59.607Z,7.52
2023-02-02T07:25:02.179Z,7.56
2023-02-02T07:26:08.030Z,7.71
2023-02-02T07:27:11.873Z,7.75
2023-02-02T07:28:14.729Z,7.54
2023-02-02T07:29:18.257Z,7.36
2023-02-02T07:30:21.412Z,7.19
2023-02-02T07:31:27.690Z,7.13
2023-02-02T07:32:32.104Z,7.21
2023-02-02T07:33:39.846Z,7.28
2023-02-02T07:34:44.246Z,7.28
2023-02-02T07:35:46.481Z,7.21
2023-02-02T07:36:49.862Z,7.45
2023-02-02T07:37:53.462Z,7.22
2023-02-02T07:38:57.724Z,7.37
2023-02-02T07:40:01.225Z,7.47
2023-02-02T07:41:05.244Z,7.30
2023-02-02T07:42:09.061Z,7.43
2023-02-02T07:43:11.550Z,7.22
2023-02-02T07:44:16.715Z,7.17
2023-02-02T07:45:36.419Z,7.35
2023-02-02T07:46:40.051Z,7.42
2023-02-02T07:47:44.102Z,7.34
2023-02-02T07:48:48.330Z,7.28
2023-02-02T07:49:51.979Z,7.41
2023-02-02T07:50:54.357Z,7.61
2023-02-02T07:51:58.058Z,7.58
2023-02-02T07:53:00.860Z,7.62
2023-02-02T07:54:04.869Z,7.61
2023-02-02T07:55:14.717Z,7.74
2023-02-02T07:56:30.114Z,7.90
2023-02-02T07:57:32.519Z,7.87
2023-02-02T07:58:36.077Z,7.74
2023-02-02T07:59:39.543Z,7.85
2023-02-02T08:00:42.344Z,8.18
2023-02-02T08:01:45.738Z,8.42
2023-02-02T08:02:50.802Z,8.63
2023-02-02T08:03:55.858Z,8.59
2023-02-02T08:04:58.467Z,8.64
2023-02-02T08:06:02.252Z,8.77
2023-02-02T08:07:04.821Z,8.81
2023-02-02T08:08:08.429Z,8.83
2023-02-02T08:09:12.096Z,8.90
2023-02-02T08:10:14.752Z,9.03
2023-02-02T08:11:20.213Z,9.03
2023-02-02T08:12:24.820Z,9.25
2023-02-02T08:13:28.929Z,9.19
2023-02-02T08:14:33.579Z,9.27
2023-02-02T08:15:35.972Z,9.31
2023-02-02T08:16:39.214Z,9.42
2023-02-02T08:17:47.548Z,9.54
2023-02-02T08:18:53.908Z,9.74
2023-02-02T08:19:57.763Z,9.74
2023-02-02T08:21:01.512Z,9.88
2023-02-02T08:22:05.065Z,9.94
2023-02-02T08:23:13.969Z,9.92
2023-02-02T08:24:17.395Z,10.17
2023-02-02T08:25:20.098Z,10.32
2023-02-02T08:26:25.776Z,10.73
2023-02-02T08:27:29.110Z,11.18
2023-02-02T08:28:32.891Z,11.61
2023-02-02T08:29:37.079Z,11.96
2023-02-02T08:30:40.699Z,12.24
2023-02-02T08:31:46.140Z,12.66
2023-02-02T08:32:48.911Z,13.06
2023-02-02T08:33:55.104Z,13.32
2023-02-02T08:34:57.621Z,13.46
2023-02-02T08:36:00.997Z,13.44
2023-02-02T08:37:04.904Z,13.33
2023-02-02T08:38:07.603Z,13.74
2023-02-02T08:39:14.598Z,14.04
2023-02-02T08:40:17.740Z,14.38
2023-02-02T08:41:23.067Z,14.74
2023-02-02T08:42:26.696Z,15.02
2023-02-02T08:43:30.843Z,15.19
2023-02-02T08:44:44.951Z,15.27
2023-02-02T08:46:02.744Z,15.43
2023-02-02T08:47:06.017Z,15.64
2023-02-02T08:48:12.292Z,15.86
2023-02-02T08:49:17.866Z,16.06
2023-02-02T08:50:20.761Z,16.24
2023-02-02T08:51:24.609Z,16.45
2023-02-02T08:52:27.653Z,16.71
2023-02-02T08:53:32.018Z,16.81
2023-02-02T08:54:35.424Z,17.16
2023-02-02T08:55:37.765Z,17.44
2023-02-02T08:56:41.138Z,17.56
2023-02-02T08:57:43.643Z,17.75
2023-02-02T08:58:48.767Z,17.77
2023-02-02T08:59:52.316Z,18.05
2023-02-02T09:00:55.325Z,17.91
2023-02-02T09:01:59.698Z,18.18
2023-02-02T09:03:01.950Z,17.46
2023-02-02T09:04:08.353Z,17.53
2023-02-02T09:05:13.241Z,17.42
2023-02-02T09:06:17.651Z,17.73
2023-02-02T09:07:21.302Z,17.59
2023-02-02T09:08:24.872Z,17.45
2023-02-02T09:09:28.940Z,17.48
2023-02-02T09:10:32.800Z,16.84
2023-02-02T09:11:37.391Z,17.15
2023-02-02T09:12:40.871Z,16.69
2023-02-02T09:13:46.078Z,17.27
2023-02-02T09:14:49.654Z,16.63
2023-02-02T09:15:52.240Z,16.58
2023-02-02T09:16:55.768Z,16.48
2023-02-02T09:17:58.339Z,16.73
2023-02-02T09:19:01.930Z,16.87
2023-02-02T09:20:06.825Z,17.13
2023-02-02T09:21:14.717Z,17.48
2023-02-02T09:22:18.543Z,17.11
2023-02-02T09:23:21.295Z,16.84
2023-02-02T09:24:25.027Z,17.06
2023-02-02T09:25:28.501Z,17.39
2023-02-02T09:26:31.986Z,17.90
2023-02-02T09:27:39.676Z,17.55
2023-02-02T09:28:45.676Z,18.51
2023-02-02T09:29:49.136Z,18.16
2023-02-02T09:30:52.709Z,18.59
2023-02-02T09:31:55.207Z,18.33
2023-02-02T09:32:58.754Z,18.42
2023-02-02T09:34:04.080Z,18.29
2023-02-02T09:35:07.418Z,18.78
2023-02-02T09:36:14.203Z,19.07
2023-02-02T09:37:18.024Z,17.85
2023-02-02T09:38:20.500Z,17.70
2023-02-02T09:39:24.156Z,18.06
2023-02-02T09:40:30.629Z,17.79
2023-02-02T09:41:59.515Z,17.43
2023-02-02T09:43:17.774Z,18.31
2023-02-02T09:44:32.974Z,18.74
2023-02-02T09:45:46.347Z,18.54
2023-02-02T09:47:00.103Z,17.69
2023-02-02T09:48:19.674Z,17.90
2023-02-02T09:49:29.020Z,18.71
2023-02-02T09:50:47.192Z,18.47
2023-02-02T09:51:58.395Z,18.59
2023-02-02T09:53:07.828Z,18.95
2023-02-02T09:54:19.978Z,19.22
2023-02-02T09:55:31.923Z,19.97
2023-02-02T09:56:41.514Z,19.59
2023-02-02T09:57:49.090Z,19.88
2023-02-02T09:58:57.765Z,19.08
2023-02-02T10:00:06.089Z,19.11
2023-02-02T10:01:14.498Z,19.01
2023-02-02T10:02:22.978Z,20.24
2023-02-02T10:03:34.810Z,19.37
2023-02-02T10:04:41.449Z,19.93
2023-02-02T10:05:53.240Z,20.60
2023-02-02T10:07:02.941Z,21.33
2023-02-02T10:08:10.412Z,21.44
2023-02-02T10:09:26.973Z,20.89
2023-02-02T10:10:35.771Z,20.83
2023-02-02T10:11:44.919Z,20.93
2023-02-02T10:12:54.283Z,21.53
2023-02-02T10:14:03.809Z,20.73
2023-02-02T10:15:18.772Z,20.94
2023-02-02T10:16:25.703Z,21.41
2023-02-02T10:17:43.354Z,21.16
2023-02-02T10:18:53.400Z,20.45
2023-02-02T10:20:03.328Z,19.88
2023-02-02T10:21:12.134Z,20.69
2023-02-02T10:22:23.423Z,19.69
2023-02-02T10:23:29.865Z,20.45
2023-02-02T10:24:35.519Z,20.83
2023-02-02T10:25:46.068Z,21.42
2023-02-02T10:26:52.328Z,21.50
2023-02-02T10:28:01.555Z,21.61
2023-02-02T10:29:15.718Z,20.72
2023-02-02T10:30:20.227Z,21.12
2023-02-02T10:31:39.892Z,20.86
2023-02-02T10:32:50.744Z,21.74
2023-02-02T10:34:07.946Z,22.11
2023-02-02T10:35:31.818Z,21.51
2023-02-02T10:36:47.560Z,22.05
2023-02-02T10:37:58.584Z,22.14
2023-02-02T10:39:11.477Z,21.93
2023-02-02T10:40:27.346Z,21.98
2023-02-02T10:41:38.660Z,22.79
2023-02-02T10:43:11.095Z,22.43
2023-02-02T10:44:24.859Z,21.76
2023-02-02T10:45:27.219Z,21.94
2023-02-02T10:46:35.393Z,21.56
2023-02-02T10:47:38.993Z,21.70
2023-02-02T10:48:44.648Z,21.84
2023-02-02T10:49:56.025Z,21.74
2023-02-02T10:51:05.545Z,21.87
2023-02-02T10:52:17.709Z,22.13
2023-02-02T10:53:26.083Z,22.02
2023-02-02T10:54:58.429Z,21.45
2023-02-02T10:56:08.860Z,20.56
2023-02-02T10:57:16.238Z,19.99
2023-02-02T10:58:27.622Z,20.07
2023-02-02T10:59:33.402Z,19.79
2023-02-02T11:00:42.565Z,19.85
2023-02-02T11:01:45.659Z,19.23
2023-02-02T11:02:49.920Z,19.36
2023-02-02T11:04:14.278Z,19.06
2023-02-02T11:05:40.524Z,18.14
2023-02-02T11:06:52.593Z,18.19
2023-02-02T11:07:57.402Z,18.06
2023-02-02T11:09:06.870Z,17.76
2023-02-02T11:10:11.285Z,18.17
2023-02-02T11:11:21.739Z,18.26
2023-02-02T11:12:33.602Z,18.18
2023-02-02T11:13:42.457Z,17.90
2023-02-02T11:14:51.083Z,18.04
2023-02-02T11:16:20.679Z,18.85
2023-02-02T11:17:26.293Z,18.62
2023-02-02T11:18:30.043Z,18.76
2023-02-02T11:19:36.037Z,18.58
2023-02-02T11:20:39.847Z,18.62
2023-02-02T11:21:47.858Z,18.26
2023-02-02T11:23:02.214Z,18.42
2023-02-02T11:24:19.700Z,18.64
2023-02-02T11:25:32.503Z,19.00
2023-02-02T11:26:49.135Z,18.48
2023-02-02T11:27:53.677Z,18.29
2023-02-02T11:28:59.974Z,19.16
2023-02-02T11:30:22.808Z,18.95
2023-02-02T11:31:33.653Z,18.60
2023-02-02T11:32:37.963Z,18.76
2023-02-02T11:33:40.436Z,19.21
2023-02-02T11:34:43.907Z,19.31
2023-02-02T11:35:54.996Z,19.25
2023-02-02T11:37:04.868Z,19.27
2023-02-02T11:38:16.819Z,19.08
2023-02-02T11:39:23.358Z,18.73
2023-02-02T11:40:35.930Z,18.68
2023-02-02T11:41:39.063Z,18.24
2023-02-02T11:42:47.409Z,18.53
2023-02-02T11:43:54.809Z,18.14
2023-02-02T11:44:58.215Z,18.35
2023-02-02T11:46:03.938Z,18.55
2023-02-02T11:47:08.229Z,19.05
2023-02-02T11:48:16.127Z,19.20
2023-02-02T11:49:23.218Z,18.63
2023-02-02T11:50:28.587Z,18.53
2023-02-02T11:51:33.664Z,18.86
2023-02-02T11:52:40.491Z,18.73
2023-02-02T11:53:49.090Z,18.96
2023-02-02T11:54:56.943Z,19.05
2023-02-02T11:56:02.883Z,18.86
2023-02-02T11:57:10.715Z,18.70
2023-02-02T11:58:25.146Z,18.01
2023-02-02T11:59:32.052Z,18.22
2023-02-02T12:00:34.998Z,18.63
2023-02-02T12:01:41.051Z,19.04
2023-02-02T12:02:47.219Z,18.99
2023-02-02T12:03:51.820Z,19.45
2023-02-02T12:04:55.465Z,18.95
2023-02-02T12:05:59.832Z,18.98
2023-02-02T12:07:03.567Z,19.53
2023-02-02T12:08:09.269Z,19.37
2023-02-02T12:09:15.201Z,18.98
2023-02-02T12:10:27.657Z,19.12
2023-02-02T12:11:42.154Z,19.08
2023-02-02T12:12:54.804Z,19.44
2023-02-02T12:14:13.189Z,19.61
2023-02-02T12:15:26.986Z,19.23
2023-02-02T12:16:44.706Z,19.96
2023-02-02T12:17:50.229Z,19.55
2023-02-02T12:19:20.084Z,18.85
2023-02-02T12:20:33.465Z,19.51
2023-02-02T12:21:44.891Z,18.42
2023-02-02T12:23:08.094Z,18.20
2023-02-02T12:24:30.057Z,17.96
2023-02-02T12:25:56.390Z,18.02
2023-02-02T12:27:22.878Z,18.08
2023-02-02T12:28:45.868Z,18.12
2023-02-02T12:30:09.504Z,18.16
2023-02-02T12:31:20.769Z,18.37
2023-02-02T12:32:37.036Z,18.31
2023-02-02T12:33:47.817Z,18.24
2023-02-02T12:35:01.241Z,18.29
2023-02-02T12:36:36.592Z,18.49
2023-02-02T12:37:50.274Z,18.72
2023-02-02T12:39:10.109Z,18.76
2023-02-02T12:40:28.522Z,18.93
2023-02-02T12:41:46.873Z,18.80
2023-02-02T12:43:01.725Z,18.86
2023-02-02T12:44:15.392Z,18.47
2023-02-02T12:45:48.309Z,18.07
2023-02-02T12:47:14.558Z,18.64
2023-02-02T12:48:34.970Z,18.20
2023-02-02T12:49:54.537Z,17.97
2023-02-02T12:51:11.625Z,18.01
2023-02-02T12:52:26.871Z,18.10
2023-02-02T12:53:46.389Z,17.86
2023-02-02T12:55:21.426Z,17.69
2023-02-02T12:56:31.319Z,18.22
2023-02-02T12:57:50.448Z,18.50
2023-02-02T12:59:04.668Z,18.35
2023-02-02T13:00:32.612Z,18.65
2023-02-02T13:01:50.207Z,18.77
2023-02-02T13:03:06.582Z,18.66
2023-02-02T13:04:30.127Z,18.35
2023-02-02T13:05:54.451Z,18.67
2023-02-02T13:07:28.290Z,18.89
2023-02-02T13:08:37.168Z,18.33
2023-02-02T13:09:44.901Z,18.42
2023-02-02T13:10:53.518Z,18.60
2023-02-02T13:12:02.176Z,18.30
2023-02-02T13:13:11.429Z,18.30
2023-02-02T13:14:24.672Z,18.50
2023-02-02T13:15:34.439Z,18.26
2023-02-02T13:16:41.278Z,18.52
2023-02-02T13:17:50.149Z,18.42
2023-02-02T13:19:00.116Z,18.30
2023-02-02T13:20:08.932Z,18.44
2023-02-02T13:21:16.942Z,18.16
2023-02-02T13:22:30.336Z,17.77
2023-02-02T13:23:37.767Z,17.46
2023-02-02T13:24:42.820Z,17.88
2023-02-02T13:25:50.423Z,17.85
2023-02-02T13:26:55.265Z,17.95
2023-02-02T13:28:01.203Z,17.86
2023-02-02T13:29:10.263Z,17.90
2023-02-02T13:30:24.990Z,18.10
2023-02-02T13:31:35.750Z,18.22
2023-02-02T13:32:41.801Z,18.27
2023-02-02T13:33:49.703Z,17.76
2023-02-02T13:34:58.449Z,17.99
2023-02-02T13:36:08.571Z,17.98
2023-02-02T13:37:20.262Z,18.39
2023-02-02T13:38:25.598Z,18.45
2023-02-02T13:39:34.543Z,18.10
2023-02-02T13:40:41.292Z,18.20
2023-02-02T13:41:44.851Z,18.08
2023-02-02T13:42:55.476Z,17.94
2023-02-02T13:44:03.725Z,17.85
2023-02-02T13:45:26.233Z,17.83
2023-02-02T13:46:35.990Z,17.54
2023-02-02T13:47:45.635Z,17.43
2023-02-02T13:48:57.875Z,18.04
2023-02-02T13:50:08.045Z,18.18
2023-02-02T13:51:43.780Z,18.53
2023-02-02T13:53:03.948Z,18.88
2023-02-02T13:54:47.624Z,18.46
2023-02-02T13:56:16.614Z,18.29
2023-02-02T13:57:35.209Z,18.85
2023-02-02T13:59:00.117Z,18.73
2023-02-02T14:00:13.548Z,18.98
2023-02-02T14:01:20.070Z,18.67
2023-02-02T14:02:30.786Z,17.99
2023-02-02T14:03:39.863Z,18.09
2023-02-02T14:04:42.768Z,17.56
2023-02-02T14:06:05.076Z,17.70
2023-02-02T14:07:10.742Z,17.75
2023-02-02T14:08:20.566Z,18.11
2023-02-02T14:09:27.796Z,18.07
2023-02-02T14:10:36.222Z,18.08
2023-02-02T14:11:42.573Z,18.12
2023-02-02T14:12:44.943Z,18.31
2023-02-02T14:14:08.184Z,18.41
2023-02-02T14:15:13.525Z,18.45
2023-02-02T14:16:26.197Z,18.49
2023-02-02T14:17:56.955Z,18.26
2023-02-02T14:19:00.458Z,17.78
2023-02-02T14:20:06.690Z,17.30
2023-02-02T14:21:08.918Z,17.42
2023-02-02T14:22:22.618Z,17.78
2023-02-02T14:23:53.179Z,17.68
2023-02-02T14:24:56.189Z,17.87
2023-02-02T14:26:07.497Z,17.67
2023-02-02T14:28:03.107Z,17.56
2023-02-02T14:29:40.684Z,17.75
2023-02-02T14:30:44.297Z,17.37
2023-02-02T14:31:57.047Z,17.25
2023-02-02T14:33:47.714Z,17.11
2023-02-02T14:34:53.869Z,16.62
2023-02-02T14:36:01.614Z,16.89
2023-02-02T14:37:42.587Z,16.71
2023-02-02T14:39:19.465Z,16.25
2023-02-02T14:40:40.684Z,16.60
2023-02-02T14:42:26.183Z,16.65
2023-02-02T14:43:44.341Z,16.79
2023-02-02T14:45:27.128Z,16.93
2023-02-02T14:46:40.411Z,17.25
2023-02-02T14:47:48.944Z,17.27
2023-02-02T14:49:10.532Z,17.05